createdAt,value
2023-03-20T00:02:06.696Z,9.10
2023-03-20T00:04:35.151Z,9.10
2023-03-20T00:07:03.836Z,9.10
2023-03-20T00:09:32.938Z,9.00
2023-03-20T00:12:01.420Z,9.10
2023-03-20T00:14:30.862Z,9.00
2023-03-20T00:16:59.039Z,9.00
2023-03-20T00:19:29.405Z,9.00
2023-03-20T00:21:58.416Z,9.00
2023-03-20T00:24:27.914Z,9.00
2023-03-20T00:26:56.498Z,9.00
2023-03-20T00:29:26.747Z,9.00
2023-03-20T00:31:57.027Z,9.00
2023-03-20T00:34:27.322Z,9.00
2023-03-20T00:36:56.315Z,9.00
2023-03-20T00:39:25.023Z,9.00
2023-03-20T00:41:56.075Z,9.00
2023-03-20T00:44:27.665Z,9.00
2023-03-20T00:46:59.430Z,9.00
2023-03-20T00:49:29.295Z,9.00
2023-03-20T00:51:58.352Z,9.00
2023-03-20T00:54:26.640Z,9.00
2023-03-20T00:56:59.120Z,9.10
2023-03-20T00:59:32.285Z,9.10
2023-03-20T01:02:03.194Z,9.00
2023-03-20T01:04:36.999Z,9.00
2023-03-20T01:07:09.081Z,9.00
2023-03-20T01:09:37.404Z,9.00
2023-03-20T01:12:07.907Z,9.00
2023-03-20T01:14:36.325Z,9.00
2023-03-20T01:17:06.033Z,9.00
2023-03-20T01:19:34.159Z,9.00
2023-03-20T01:22:02.850Z,9.00
2023-03-20T01:24:30.987Z,9.00
2023-03-20T01:27:03.594Z,9.00
2023-03-20T01:29:32.677Z,9.00
2023-03-20T01:32:01.024Z,9.00
2023-03-20T01:34:30.810Z,9.00
2023-03-20T01:36:59.858Z,8.90
2023-03-20T01:39:34.639Z,9.00
2023-03-20T01:42:05.274Z,9.00
2023-03-20T01:44:35.379Z,9.00
2023-03-20T01:47:12.561Z,8.90
2023-03-20T01:50:19.196Z,8.90
2023-03-20T01:52:49.023Z,8.80
2023-03-20T01:55:17.636Z,8.80
2023-03-20T01:57:46.202Z,8.80
2023-03-20T02:00:16.965Z,8.70
2023-03-20T02:02:47.177Z,8.70
2023-03-20T02:05:21.269Z,8.60
2023-03-20T02:07:57.167Z,8.60
2023-03-20T02:10:25.549Z,8.50
2023-03-20T02:12:54.019Z,8.50
2023-03-20T02:15:23.237Z,8.50
2023-03-20T02:17:51.451Z,8.40
2023-03-20T02:20:32.372Z,8.40
2023-03-20T02:23:47.758Z,8.40
2023-03-20T02:26:44.236Z,8.40
2023-03-20T02:29:53.677Z,8.40
2023-03-20T02:32:54.784Z,8.30
2023-03-20T02:36:01.922Z,8.30
2023-03-20T02:38:59.910Z,8.20
2023-03-20T02:41:32.285Z,8.20
2023-03-20T02:44:06.687Z,8.20
2023-03-20T02:46:47.196Z,8.20
2023-03-20T02:49:24.459Z,8.10
2023-03-20T02:51:59.055Z,8.10
2023-03-20T02:54:36.983Z,8.00
2023-03-20T02:57:08.614Z,8.00
2023-03-20T02:59:42.454Z,8.00
2023-03-20T03:02:14.214Z,7.90
2023-03-20T03:04:49.615Z,7.90
2023-03-20T03:07:22.381Z,7.90
2023-03-20T03:09:57.011Z,7.90
2023-03-20T03:12:30.035Z,7.80
2023-03-20T03:15:02.924Z,7.80
2023-03-20T03:17:35.386Z,7.70
2023-03-20T03:20:08.237Z,7.70
2023-03-20T03:22:37.669Z,7.70
2023-03-20T03:25:08.131Z,7.70
2023-03-20T03:27:41.001Z,7.70
2023-03-20T03:30:14.664Z,7.70
2023-03-20T03:32:47.792Z,7.70
2023-03-20T03:35:19.697Z,7.60
2023-03-20T03:37:59.003Z,7.60
2023-03-20T03:40:34.016Z,7.60
2023-03-20T03:43:08.429Z,7.60
2023-03-20T03:45:40.530Z,7.60
2023-03-20T03:48:12.130Z,7.60
2023-03-20T03:50:48.030Z,7.50
2023-03-20T03:53:19.255Z,7.50
2023-03-20T03:55:52.553Z,7.50
2023-03-20T03:58:25.770Z,7.40
2023-03-20T04:00:56.484Z,7.40
2023-03-20T04:03:32.975Z,7.40
2023-03-20T04:06:03.378Z,7.40
2023-03-20T04:08:31.657Z,7.40
2023-03-20T04:11:01.422Z,7.40
2023-03-20T04:13:29.629Z,7.40
2023-03-20T04:15:57.872Z,7.40
2023-03-20T04:18:26.115Z,7.40
2023-03-20T04:20:54.728Z,7.40
2023-03-20T04:23:22.821Z,7.40
2023-03-20T04:25:51.078Z,7.40
2023-03-20T04:28:20.864Z,7.40
2023-03-20T04:30:54.206Z,7.40
2023-03-20T04:33:22.762Z,7.30
2023-03-20T04:35:51.712Z,7.40
2023-03-20T04:38:20.546Z,7.40
2023-03-20T04:40:49.088Z,7.40
2023-03-20T04:43:17.728Z,7.40
2023-03-20T04:45:47.385Z,7.40
2023-03-20T04:48:15.690Z,7.40
2023-03-20T04:50:46.658Z,7.40
2023-03-20T04:53:15.116Z,7.40
2023-03-20T04:55:43.386Z,7.40
2023-03-20T04:58:11.513Z,7.50
2023-03-20T05:00:40.075Z,7.50
2023-03-20T05:03:09.840Z,7.50
2023-03-20T05:05:38.626Z,7.50
2023-03-20T05:08:07.165Z,7.50
2023-03-20T05:10:35.365Z,7.50
2023-03-20T05:13:03.479Z,7.60
2023-03-20T05:15:31.964Z,7.60
2023-03-20T05:18:00.097Z,7.50
2023-03-20T05:20:29.776Z,7.60
2023-03-20T05:22:58.014Z,7.60
2023-03-20T05:25:26.633Z,7.60
2023-03-20T05:27:56.209Z,7.60
2023-03-20T05:30:24.428Z,7.60
2023-03-20T05:32:53.231Z,7.60
2023-03-20T05:35:21.518Z,7.60
2023-03-20T05:37:51.413Z,7.50
2023-03-20T05:40:24.210Z,7.50
2023-03-20T05:42:52.793Z,7.60
2023-03-20T05:45:21.008Z,7.60
2023-03-20T05:47:49.333Z,7.60
2023-03-20T05:50:17.556Z,7.60
2023-03-20T05:52:48.439Z,7.50
2023-03-20T05:55:18.168Z,7.50
2023-03-20T05:57:46.607Z,7.50
2023-03-20T06:00:16.549Z,7.50
2023-03-20T06:02:47.193Z,7.50
2023-03-20T06:05:16.043Z,7.50
2023-03-20T06:07:44.759Z,7.50
2023-03-20T06:10:13.078Z,7.50
2023-03-20T06:12:42.755Z,7.50
2023-03-20T06:15:12.042Z,7.50
2023-03-20T06:17:42.335Z,7.50
2023-03-20T06:20:11.826Z,7.60
2023-03-20T06:22:40.145Z,7.50
2023-03-20T06:25:11.358Z,7.60
2023-03-20T06:27:40.194Z,7.50
2023-03-20T06:30:11.545Z,7.50
2023-03-20T06:32:39.915Z,7.50
2023-03-20T06:35:09.300Z,7.50
2023-03-20T06:37:37.904Z,7.50
2023-03-20T06:40:07.367Z,7.50
2023-03-20T06:42:35.484Z,7.60
2023-03-20T06:45:03.925Z,7.60
2023-03-20T06:47:33.495Z,7.60
2023-03-20T06:50:02.418Z,7.60
2023-03-20T06:52:30.646Z,7.60
2023-03-20T06:54:58.802Z,7.60
2023-03-20T06:57:27.064Z,7.60
2023-03-20T06:59:55.309Z,7.60
2023-03-20T07:02:24.356Z,7.60
2023-03-20T07:04:54.127Z,7.60
2023-03-20T07:07:22.387Z,7.60
2023-03-20T07:09:50.831Z,7.70
2023-03-20T07:12:19.970Z,7.70
2023-03-20T07:14:48.626Z,7.70
2023-03-20T07:17:16.846Z,7.70
2023-03-20T07:19:45.053Z,7.70
2023-03-20T07:22:21.998Z,7.70
2023-03-20T07:24:50.174Z,7.80
2023-03-20T07:27:18.367Z,7.80
2023-03-20T07:29:46.659Z,7.70
2023-03-20T07:32:14.820Z,7.80
2023-03-20T07:34:42.913Z,7.80
2023-03-20T07:37:11.315Z,7.80
2023-03-20T07:39:40.786Z,7.90
2023-03-20T07:42:08.933Z,7.80
2023-03-20T07:44:37.399Z,7.90
2023-03-20T07:47:06.127Z,7.90
2023-03-20T07:49:34.387Z,7.90
2023-03-20T07:52:02.848Z,8.00
2023-03-20T07:54:30.993Z,8.00
2023-03-20T07:57:00.497Z,8.10
2023-03-20T07:59:28.670Z,8.10
2023-03-20T08:01:57.052Z,8.10
2023-03-20T08:04:25.598Z,8.20
2023-03-20T08:06:53.879Z,8.20
2023-03-20T08:09:22.321Z,8.30
2023-03-20T08:11:51.228Z,8.30
2023-03-20T08:14:20.706Z,8.30
2023-03-20T08:16:56.349Z,8.40
2023-03-20T08:19:30.686Z,8.50
2023-03-20T08:21:58.813Z,8.50
2023-03-20T08:24:27.155Z,8.50
2023-03-20T08:26:55.520Z,8.60
2023-03-20T08:29:25.081Z,8.60
2023-03-20T08:31:53.300Z,8.60
2023-03-20T08:34:23.926Z,8.70
2023-03-20T08:36:52.804Z,8.70
2023-03-20T08:39:21.844Z,8.70
2023-03-20T08:41:50.058Z,8.80
2023-03-20T08:44:18.309Z,8.80
2023-03-20T08:46:47.729Z,8.80
2023-03-20T08:49:17.327Z,8.80
2023-03-20T08:51:46.732Z,8.70
2023-03-20T08:54:16.300Z,8.70
2023-03-20T08:56:44.423Z,8.70
2023-03-20T08:59:12.752Z,8.70
2023-03-20T09:01:49.264Z,8.70
2023-03-20T09:04:20.104Z,8.70
2023-03-20T09:06:48.513Z,8.60
2023-03-20T09:09:19.454Z,8.60
2023-03-20T09:11:47.660Z,8.60
2023-03-20T09:14:16.221Z,8.60
2023-03-20T09:16:44.455Z,8.50
2023-03-20T09:19:12.673Z,8.60
2023-03-20T09:21:42.365Z,8.50
2023-03-20T09:24:11.456Z,8.50
2023-03-20T09:26:40.056Z,8.60
2023-03-20T09:29:08.166Z,8.60
2023-03-20T09:31:36.357Z,8.60
2023-03-20T09:34:04.725Z,8.70
2023-03-20T09:36:32.932Z,8.70
2023-03-20T09:39:02.759Z,8.70
2023-03-20T09:41:45.788Z,8.80
2023-03-20T09:44:35.503Z,8.90
2023-03-20T09:47:20.807Z,8.90
2023-03-20T09:50:00.188Z,8.90
2023-03-20T09:52:32.064Z,8.90
2023-03-20T09:55:08.059Z,9.10
2023-03-20T09:57:41.263Z,9.10
2023-03-20T10:00:17.547Z,9.00
2023-03-20T10:02:50.938Z,9.10
2023-03-20T10:05:24.191Z,9.10
2023-03-20T10:07:54.227Z,9.10
2023-03-20T10:10:29.119Z,9.20
2023-03-20T10:13:09.874Z,9.20
2023-03-20T10:15:47.328Z,9.30
2023-03-20T10:18:22.194Z,9.30
2023-03-20T10:21:00.493Z,9.50
2023-03-20T10:23:37.037Z,9.40
2023-03-20T10:26:11.916Z,9.30
2023-03-20T10:28:45.463Z,9.40
2023-03-20T10:31:31.025Z,9.40
2023-03-20T10:34:10.017Z,9.50
2023-03-20T10:36:54.084Z,9.50
2023-03-20T10:39:35.642Z,9.60
2023-03-20T10:42:14.652Z,9.60
2023-03-20T10:44:46.879Z,9.60
2023-03-20T10:47:19.760Z,9.40
2023-03-20T10:49:51.788Z,9.70
2023-03-20T10:52:23.763Z,9.70
2023-03-20T10:54:56.472Z,9.70
2023-03-20T10:57:27.463Z,9.70
2023-03-20T10:59:58.205Z,9.80
2023-03-20T11:02:29.361Z,9.80
2023-03-20T11:04:57.750Z,9.70
2023-03-20T11:07:28.942Z,9.70
2023-03-20T11:10:12.255Z,9.80
2023-03-20T11:12:44.169Z,9.90
2023-03-20T11:15:24.517Z,9.80
2023-03-20T11:17:54.962Z,9.80
2023-03-20T11:20:23.536Z,9.70
2023-03-20T11:22:58.805Z,9.70
2023-03-20T11:25:32.140Z,9.90
2023-03-20T11:28:26.833Z,9.90
2023-03-20T11:31:04.749Z,9.90
2023-03-20T11:33:38.658Z,9.90
2023-03-20T11:36:13.909Z,10.00
2023-03-20T11:38:45.917Z,10.10
2023-03-20T11:41:20.621Z,10.10
2023-03-20T11:43:50.375Z,10.10
2023-03-20T11:46:21.276Z,10.20
2023-03-20T11:49:02.120Z,10.10
2023-03-20T11:51:30.319Z,10.20
2023-03-20T11:54:02.989Z,10.20
2023-03-20T11:56:33.778Z,10.30
2023-03-20T11:59:08.563Z,10.20
2023-03-20T12:01:46.807Z,10.20
2023-03-20T12:04:17.986Z,10.10
2023-03-20T12:06:50.079Z,10.20
2023-03-20T12:09:34.298Z,10.20
2023-03-20T12:12:04.780Z,10.20
2023-03-20T12:14:43.345Z,10.30
2023-03-20T12:17:31.332Z,10.40
2023-03-20T12:20:03.623Z,10.40
2023-03-20T12:22:35.794Z,10.40
2023-03-20T12:25:14.237Z,10.40
2023-03-20T12:27:48.800Z,10.50
2023-03-20T12:30:24.307Z,10.70
2023-03-20T12:33:00.349Z,10.80
2023-03-20T12:35:32.629Z,10.70
2023-03-20T12:38:00.975Z,10.80
2023-03-20T12:40:38.325Z,10.80
2023-03-20T12:43:15.353Z,10.80
2023-03-20T12:45:54.274Z,10.70
2023-03-20T12:48:43.242Z,10.70
2023-03-20T12:51:19.112Z,10.60
2023-03-20T12:54:02.428Z,10.50
2023-03-20T12:56:49.348Z,10.60
2023-03-20T12:59:27.540Z,10.50
2023-03-20T13:02:02.072Z,10.50
2023-03-20T13:04:59.321Z,10.50
2023-03-20T13:07:42.841Z,10.40
2023-03-20T13:10:21.244Z,10.30
2023-03-20T13:13:02.091Z,10.40
2023-03-20T13:15:44.779Z,10.30
2023-03-20T13:18:19.794Z,10.30
2023-03-20T13:20:52.488Z,10.20
2023-03-20T13:23:29.568Z,10.30
2023-03-20T13:26:21.478Z,10.20
2023-03-20T13:28:57.896Z,10.20
2023-03-20T13:31:36.345Z,10.20
2023-03-20T13:34:17.548Z,10.20
2023-03-20T13:37:04.438Z,10.10
2023-03-20T13:39:45.972Z,10.10
2023-03-20T13:42:18.287Z,10.10
2023-03-20T13:44:47.217Z,10.00
2023-03-20T13:47:19.822Z,10.10
2023-03-20T13:49:58.218Z,10.00
2023-03-20T13:52:32.199Z,10.10
2023-03-20T13:55:21.390Z,10.00
2023-03-20T13:58:07.521Z,10.00
2023-03-20T14:00:42.851Z,9.90
2023-03-20T14:03:26.085Z,9.90
2023-03-20T14:05:56.404Z,9.80
2023-03-20T14:08:33.247Z,9.80
2023-03-20T14:11:35.684Z,9.70
2023-03-20T14:14:13.303Z,9.60
2023-03-20T14:16:42.385Z,9.70
2023-03-20T14:19:19.131Z,9.60
2023-03-20T14:21:52.067Z,9.60
2023-03-20T14:24:22.038Z,9.60
2023-03-20T14:26:51.739Z,9.60
2023-03-20T14:29:34.688Z,9.60
2023-03-20T14:32:24.619Z,9.60
2023-03-20T14:34:54.946Z,9.60
2023-03-20T14:37:36.462Z,9.60
2023-03-20T14:40:17.573Z,9.60
2023-03-20T14:42:52.501Z,9.70
2023-03-20T14:45:36.907Z,9.70
2023-03-20T14:48:27.997Z,9.70
2023-03-20T14:51:20.458Z,9.60
2023-03-20T14:53:56.840Z,9.60
2023-03-20T14:56:31.161Z,9.60
2023-03-20T14:59:03.655Z,9.50
2023-03-20T15:01:57.454Z,9.40
2023-03-20T15:04:39.001Z,9.30
2023-03-20T15:07:14.633Z,9.40
2023-03-20T15:09:46.532Z,9.40
2023-03-20T15:12:17.837Z,9.30
2023-03-20T15:14:52.283Z,9.30
2023-03-20T15:17:23.091Z,9.30
2023-03-20T15:19:51.332Z,9.20
2023-03-20T15:22:21.801Z,9.30
2023-03-20T15:24:56.856Z,9.10
2023-03-20T15:27:29.587Z,9.20
2023-03-20T15:29:59.156Z,9.20
2023-03-20T15:32:27.570Z,9.20
2023-03-20T15:34:55.748Z,9.20
2023-03-20T15:37:26.312Z,9.20
2023-03-20T15:39:59.175Z,9.20
2023-03-20T15:42:28.009Z,9.20
2023-03-20T15:44:57.609Z,9.20
2023-03-20T15:47:27.552Z,9.20
2023-03-20T15:49:57.433Z,9.20
2023-03-20T15:52:33.244Z,9.20
2023-03-20T15:55:07.318Z,9.30
2023-03-20T15:57:37.792Z,9.30
2023-03-20T16:00:10.264Z,9.30
2023-03-20T16:02:38.949Z,9.40
2023-03-20T16:05:12.776Z,9.40
2023-03-20T16:07:41.334Z,9.40
2023-03-20T16:10:20.515Z,9.40
2023-03-20T16:12:50.884Z,9.40
2023-03-20T16:15:20.502Z,9.50
2023-03-20T16:17:51.069Z,9.50
2023-03-20T16:20:19.703Z,9.50
2023-03-20T16:22:49.118Z,9.40
2023-03-20T16:25:20.386Z,9.50
2023-03-20T16:27:51.820Z,9.50
2023-03-20T16:30:26.397Z,9.50
2023-03-20T16:32:59.712Z,9.50
2023-03-20T16:35:31.053Z,9.50
2023-03-20T16:38:01.322Z,9.60
2023-03-20T16:40:35.970Z,9.50
2023-03-20T16:43:13.806Z,9.60
2023-03-20T16:45:45.031Z,9.60
2023-03-20T16:48:26.180Z,9.60
2023-03-20T16:51:00.309Z,9.60
2023-03-20T16:53:32.066Z,9.70
2023-03-20T16:56:05.094Z,9.70
2023-03-20T16:58:39.959Z,9.60
2023-03-20T17:01:10.568Z,9.70
2023-03-20T17:03:48.279Z,9.70
2023-03-20T17:06:36.943Z,9.60
2023-03-20T17:09:22.370Z,9.70
2023-03-20T17:11:57.948Z,9.70
2023-03-20T17:14:26.301Z,9.70
2023-03-20T17:16:57.360Z,9.70
2023-03-20T17:19:26.554Z,9.80
2023-03-20T17:21:54.906Z,9.70
2023-03-20T17:24:23.290Z,9.80
2023-03-20T17:26:55.799Z,9.80
2023-03-20T17:29:24.105Z,9.80
2023-03-20T17:31:52.749Z,9.80
2023-03-20T17:34:21.232Z,9.80
2023-03-20T17:36:50.106Z,9.80
2023-03-20T17:39:20.046Z,9.80
2023-03-20T17:41:48.823Z,9.80
2023-03-20T17:44:18.592Z,9.80
2023-03-20T17:46:57.795Z,9.80
2023-03-20T17:49:28.277Z,9.90
2023-03-20T17:51:56.581Z,9.80
2023-03-20T17:54:24.671Z,9.90
2023-03-20T17:56:52.893Z,9.90
2023-03-20T17:59:22.419Z,9.90
2023-03-20T18:01:50.782Z,9.90
2023-03-20T18:04:19.767Z,9.80
2023-03-20T18:06:49.139Z,9.90
2023-03-20T18:09:17.679Z,9.80
2023-03-20T18:11:45.861Z,9.80
2023-03-20T18:14:17.936Z,9.80
2023-03-20T18:16:47.610Z,9.80
2023-03-20T18:19:24.444Z,9.80
2023-03-20T18:21:52.666Z,9.80
2023-03-20T18:24:21.088Z,9.70
2023-03-20T18:26:50.805Z,9.70
2023-03-20T18:29:19.919Z,9.70
2023-03-20T18:31:50.897Z,9.70
2023-03-20T18:34:19.481Z,9.70
2023-03-20T18:36:47.745Z,9.70
2023-03-20T18:39:19.706Z,9.60
2023-03-20T18:41:47.964Z,9.60
2023-03-20T18:44:16.403Z,9.60
2023-03-20T18:46:44.860Z,9.60
2023-03-20T18:49:17.343Z,9.60
2023-03-20T18:51:46.302Z,9.60
2023-03-20T18:54:14.629Z,9.70
2023-03-20T18:56:43.259Z,9.70
2023-03-20T18:59:13.641Z,9.60
2023-03-20T19:01:41.840Z,9.60
2023-03-20T19:04:10.445Z,9.60
2023-03-20T19:06:40.345Z,9.70
2023-03-20T19:09:10.871Z,9.60
2023-03-20T19:11:39.181Z,9.60
2023-03-20T19:14:07.394Z,9.60
2023-03-20T19:16:38.022Z,9.60
2023-03-20T19:19:08.644Z,9.60
2023-03-20T19:21:36.881Z,9.60
2023-03-20T19:24:08.386Z,9.60
2023-03-20T19:26:38.139Z,9.60
2023-03-20T19:29:09.562Z,9.70
2023-03-20T19:31:38.316Z,9.70
2023-03-20T19:34:06.914Z,9.60
2023-03-20T19:36:37.332Z,9.70
2023-03-20T19:39:11.668Z,9.70
2023-03-20T19:41:39.793Z,9.70
2023-03-20T19:44:08.334Z,9.70
2023-03-20T19:46:40.168Z,9.70
2023-03-20T19:49:18.592Z,9.70
2023-03-20T19:51:49.621Z,9.70
2023-03-20T19:54:19.313Z,9.70
2023-03-20T19:56:47.615Z,9.70
2023-03-20T19:59:16.858Z,9.70
2023-03-20T20:01:46.623Z,9.70
2023-03-20T20:04:15.457Z,9.80
2023-03-20T20:06:43.624Z,9.70
2023-03-20T20:09:11.875Z,9.80
2023-03-20T20:11:41.451Z,9.80
2023-03-20T20:14:11.941Z,9.80
2023-03-20T20:16:43.182Z,9.80
2023-03-20T20:19:11.914Z,9.80
2023-03-20T20:24:28.841Z,9.80
2023-03-20T20:27:18.145Z,9.80
2023-03-20T20:29:49.032Z,9.80
2023-03-20T20:32:17.419Z,9.90
2023-03-20T20:35:35.649Z,9.90
2023-03-20T20:38:30.612Z,9.90
2023-03-20T20:40:26.736Z,9.90
2023-03-20T20:43:01.307Z,9.90
2023-03-20T20:45:31.622Z,9.90
2023-03-20T20:48:00.758Z,9.90
2023-03-20T20:50:31.698Z,9.90
2023-03-20T20:53:00.718Z,9.90
2023-03-20T20:55:28.990Z,9.90
2023-03-20T20:58:01.320Z,9.90
2023-03-20T21:00:48.684Z,10.00
2023-03-20T21:03:17.930Z,9.90
2023-03-20T21:05:46.278Z,9.90
2023-03-20T21:08:15.206Z,9.90
2023-03-20T21:10:45.804Z,9.90
2023-03-20T21:13:15.562Z,9.90
2023-03-20T21:15:45.510Z,9.90
2023-03-20T21:18:13.994Z,9.90
2023-03-20T21:20:42.304Z,9.90
2023-03-20T21:23:11.292Z,9.90
2023-03-20T21:25:41.341Z,9.90
2023-03-20T21:28:11.575Z,9.90
2023-03-20T21:30:54.604Z,9.90
2023-03-20T21:33:30.347Z,9.90
2023-03-20T21:35:58.558Z,9.90
2023-03-20T21:41:15.883Z,9.90
2023-03-20T21:43:47.046Z,10.00
2023-03-20T21:58:21.324Z,9.90
2023-03-20T22:03:28.803Z,9.90
2023-03-20T22:07:05.492Z,9.90
2023-03-20T22:12:18.448Z,9.90
2023-03-20T22:17:53.138Z,9.90
2023-03-20T22:23:47.972Z,9.90
2023-03-20T22:32:18.610Z,9.90
2023-03-20T22:35:04.321Z,9.90
2023-03-20T22:43:01.129Z,9.90
2023-03-20T22:45:38.487Z,10.00
2023-03-20T22:48:12.901Z,9.90
2023-03-20T22:50:41.049Z,9.90
2023-03-20T22:53:11.204Z,10.00
2023-03-20T22:55:44.027Z,10.00
2023-03-20T22:58:12.384Z,10.00
2023-03-20T23:00:40.974Z,10.00
2023-03-20T23:05:58.394Z,10.00
2023-03-20T23:08:28.109Z,10.00
2023-03-20T23:10:56.565Z,9.90
2023-03-20T23:13:24.722Z,9.90
2023-03-20T23:15:52.985Z,9.90
2023-03-20T23:18:21.183Z,9.90
2023-03-20T23:20:49.446Z,9.90
2023-03-20T23:23:17.757Z,10.00
2023-03-20T23:25:47.320Z,9.90
2023-03-20T23:28:15.712Z,9.90
2023-03-20T23:30:51.810Z,9.90
2023-03-20T23:33:27.936Z,9.90
2023-03-20T23:36:14.072Z,10.00
2023-03-20T23:38:44.718Z,9.90
2023-03-20T23:41:14.775Z,9.90
2023-03-20T23:43:43.395Z,9.90
2023-03-20T23:46:12.178Z,9.90
2023-03-20T23:48:40.635Z,9.90
2023-03-20T23:51:09.000Z,9.90
2023-03-20T23:53:37.291Z,9.90
2023-03-20T23:56:06.190Z,9.90
2023-03-20T23:58:39.470Z,9.90
